Welcome to Northern Hawkes Bay. New Zealand.
PWS Header
      nz Flag



Hit Counter


W3C Valid W3C Valid logo


    Wairoa

Select any of the Stations below to visit their websites.










Historic Data from Weather Underground
Select the location of interest below. Wairoa is the default. Please have patience, this Data is slow to load in.
Northern Hawkes Bay Historical Data
Daily Summary for January 13, 2019 Units:  Metric    English   Both
« Previous Day
Next Day »
Daily Weekly Monthly Yearly Custom
  High: Low: Average:
Temperature: 30.2 °C 12.5 °C 21.2 °C
Dew Point: 19.3 °C 12.1 °C 15.5 °C
Humidity: 99% 41% 73%
Wind Speed: 21.9km/h 0.0km/h 6.2km/h
Wind Gust: 31.7km/h - -
Wind- - South
Pressure: 1023.3 hPa 1009.1 hPa -
Precipitation: 0.0 mm    
Historical Graphs
 
 
Tabular Data for January 13, 2019
Time Temperature Dew Point Pressure Wind Wind Speed Wind Gust Humidity Rainfall Rate (Hourly) solar
00:14 14.7 °C 14.2 °C 1023.3 hPa Calm     97% 0.0 mm 0.00 W/m2
00:19 14.6 °C 14.1 °C 1023.1 hPa Calm     97% 0.0 mm 0.00 W/m2
00:24 14.6 °C 14.1 °C 1023.0 hPa Calm     97% 0.0 mm 0.00 W/m2
00:29 14.7 °C 14.4 °C 1023.0 hPa Calm     98% 0.0 mm 0.00 W/m2
00:34 14.8 °C 14.7 °C 1022.9 hPa Calm   2.6 km/h 99% 0.0 mm 0.00 W/m2
00:39 14.7 °C 14.6 °C 1022.8 hPa Calm   2.6 km/h 99% 0.0 mm 0.00 W/m2
00:44 14.7 °C 14.6 °C 1022.9 hPa North 2.6 km/h 5.0 km/h 99% 0.0 mm 0.00 W/m2
00:49 14.6 °C 14.4 °C 1022.8 hPa Calm   5.0 km/h 99% 0.0 mm 0.00 W/m2
00:54 14.6 °C 14.4 °C 1022.8 hPa Calm   5.0 km/h 99% 0.0 mm 0.00 W/m2
00:59 14.5 °C 14.3 °C 1022.7 hPa Calm     99% 0.0 mm 0.00 W/m2
01:04 14.4 °C 14.3 °C 1022.6 hPa Calm     99% 0.0 mm 0.00 W/m2
01:09 14.4 °C 14.3 °C 1022.6 hPa Calm     99% 0.0 mm 0.00 W/m2
01:14 14.4 °C 14.3 °C 1022.7 hPa Calm     99% 0.0 mm 0.00 W/m2
01:19 14.3 °C 14.2 °C 1022.7 hPa Calm     99% 0.0 mm 0.00 W/m2
01:24 14.2 °C 14.1 °C 1022.5 hPa Calm     99% 0.0 mm 0.00 W/m2
01:29 14.2 °C 14.1 °C 1022.4 hPa Calm     99% 0.0 mm 0.00 W/m2
01:34 14.3 °C 14.2 °C 1022.3 hPa Calm     99% 0.0 mm 0.00 W/m2
01:39 14.2 °C 14.1 °C 1022.2 hPa Calm     99% 0.0 mm 0.00 W/m2
01:44 14.1 °C 13.9 °C 1022.1 hPa Calm     99% 0.0 mm 0.00 W/m2
01:49 14.1 °C 13.9 °C 1022.1 hPa Calm     99% 0.0 mm 0.00 W/m2
01:54 14.1 °C 13.9 °C 1021.9 hPa NW 1.1 km/h 3.5 km/h 99% 0.0 mm 0.00 W/m2
01:59 14.1 °C 13.9 °C 1022.1 hPa Calm   3.5 km/h 99% 0.0 mm 0.00 W/m2
02:04 14.0 °C 13.8 °C 1021.8 hPa Calm   2.6 km/h 99% 0.0 mm 0.00 W/m2
02:09 14.0 °C 13.8 °C 1021.8 hPa Calm     99% 0.0 mm 0.00 W/m2
02:14 13.9 °C 13.8 °C 1021.8 hPa Calm     99% 0.0 mm 0.00 W/m2
02:19 13.9 °C 13.8 °C 1021.7 hPa Calm     99% 0.0 mm 0.00 W/m2
02:24 13.8 °C 13.7 °C 1021.6 hPa Calm     99% 0.0 mm 0.00 W/m2
02:29 13.8 °C 13.7 °C 1021.7 hPa Calm     99% 0.0 mm 0.00 W/m2
02:34 13.8 °C 13.7 °C 1021.6 hPa Calm     99% 0.0 mm 0.00 W/m2
02:39 13.8 °C 13.7 °C 1021.6 hPa Calm     99% 0.0 mm 0.00 W/m2
02:44 13.7 °C 13.6 °C 1021.5 hPa Calm     99% 0.0 mm 0.00 W/m2
02:49 13.7 °C 13.6 °C 1021.2 hPa Calm     99% 0.0 mm 0.00 W/m2
02:54 13.6 °C 13.4 °C 1021.4 hPa Calm     99% 0.0 mm 0.00 W/m2
02:59 13.6 °C 13.4 °C 1021.3 hPa Calm   3.5 km/h 99% 0.0 mm 0.00 W/m2
03:04 13.6 °C 13.4 °C 1021.3 hPa Calm   3.5 km/h 99% 0.0 mm 0.00 W/m2
03:09 13.5 °C 13.3 °C 1021.1 hPa Calm   3.5 km/h 99% 0.0 mm 0.00 W/m2
03:14 13.5 °C 13.3 °C 1021.0 hPa Calm     99% 0.0 mm 0.00 W/m2
03:19 13.4 °C 13.3 °C 1021.0 hPa Calm     99% 0.0 mm 0.00 W/m2
03:24 13.4 °C 13.3 °C 1021.0 hPa Calm     99% 0.0 mm 0.00 W/m2
03:29 13.4 °C 13.3 °C 1021.0 hPa Calm     99% 0.0 mm 0.00 W/m2
03:34 13.4 °C 13.3 °C 1021.0 hPa Calm     99% 0.0 mm 0.00 W/m2
03:39 13.4 °C 13.3 °C 1020.9 hPa Calm     99% 0.0 mm 0.00 W/m2
03:44 13.3 °C 13.2 °C 1020.6 hPa Calm     99% 0.0 mm 0.00 W/m2
03:49 13.3 °C 13.2 °C 1020.8 hPa Calm     99% 0.0 mm 0.00 W/m2
03:54 13.3 °C 13.2 °C 1020.7 hPa Calm     99% 0.0 mm 0.00 W/m2
03:59 13.3 °C 13.2 °C 1020.5 hPa Calm     99% 0.0 mm 0.00 W/m2
04:04 13.2 °C 13.1 °C 1020.7 hPa Calm     99% 0.0 mm 0.00 W/m2
04:09 13.2 °C 13.1 °C 1020.6 hPa Calm     99% 0.0 mm 0.00 W/m2
04:14 13.2 °C 13.1 °C 1020.8 hPa Calm     99% 0.0 mm 0.00 W/m2
04:19 13.2 °C 13.1 °C 1020.6 hPa Calm     99% 0.0 mm 0.00 W/m2
04:24 13.2 °C 13.1 °C 1020.8 hPa Calm     99% 0.0 mm 0.00 W/m2
04:29 13.2 °C 13.1 °C 1020.7 hPa Calm     99% 0.0 mm 0.00 W/m2
04:34 13.2 °C 13.1 °C 1020.6 hPa Calm     99% 0.0 mm 0.00 W/m2
04:39 13.1 °C 12.9 °C 1020.5 hPa Calm     99% 0.0 mm 0.00 W/m2
04:44 13.1 °C 12.9 °C 1020.6 hPa Calm     99% 0.0 mm 0.00 W/m2
04:49 13.1 °C 12.9 °C 1020.6 hPa Calm     99% 0.0 mm 0.00 W/m2
04:54 13.1 °C 12.9 °C 1020.6 hPa Calm     99% 0.0 mm 0.00 W/m2
04:59 13.1 °C 12.9 °C 1020.5 hPa Calm     99% 0.0 mm 0.00 W/m2
05:04 13.0 °C 12.8 °C 1020.5 hPa Calm     99% 0.0 mm 0.00 W/m2
05:09 13.0 °C 12.8 °C 1020.5 hPa Calm     99% 0.0 mm 0.00 W/m2
05:14 13.0 °C 12.8 °C 1020.4 hPa North 2.6 km/h 5.0 km/h 99% 0.0 mm 0.00 W/m2
05:19 13.0 °C 12.8 °C 1020.4 hPa Calm   6.1 km/h 99% 0.0 mm 0.00 W/m2
05:24 13.0 °C 12.8 °C 1020.5 hPa NNW 2.6 km/h 6.1 km/h 99% 0.0 mm 0.00 W/m2
05:29 12.9 °C 12.4 °C 1020.4 hPa NW 3.5 km/h 7.2 km/h 97% 0.0 mm 0.00 W/m2
05:34 12.9 °C 12.4 °C 1020.1 hPa Calm   7.2 km/h 97% 0.0 mm 0.00 W/m2
05:39 12.8 °C 12.3 °C 1020.3 hPa North 2.6 km/h 6.1 km/h 97% 0.0 mm 0.00 W/m2
05:44 12.8 °C 12.3 °C 1020.2 hPa North 2.6 km/h 6.1 km/h 97% 0.0 mm 0.00 W/m2
05:49 12.7 °C 12.2 °C 1020.2 hPa Calm   6.1 km/h 97% 0.0 mm 0.00 W/m2
05:54 12.8 °C 12.3 °C 1020.1 hPa NNW 1.1 km/h 5.0 km/h 97% 0.0 mm 0.00 W/m2
05:59 12.7 °C 12.2 °C 1020.0 hPa Calm   5.0 km/h 97% 0.0 mm 1.00 W/m2
06:04 12.6 °C 12.2 °C 1020.1 hPa Calm   6.1 km/h 97% 0.0 mm 3.00 W/m2
06:09 12.6 °C 12.2 °C 1020.0 hPa Calm   6.1 km/h 97% 0.0 mm 5.00 W/m2
06:14 12.5 °C 12.1 °C 1019.9 hPa Calm     97% 0.0 mm 12.00 W/m2
06:19 12.6 °C 12.2 °C 1019.9 hPa Calm     97% 0.0 mm 22.00 W/m2
06:24 12.8 °C 12.3 °C 1019.9 hPa Calm     97% 0.0 mm 30.00 W/m2
06:29 12.9 °C 12.4 °C 1019.9 hPa NNW 2.6 km/h 5.0 km/h 97% 0.0 mm 38.00 W/m2
06:34 13.0 °C 12.8 °C 1020.0 hPa NNW 3.5 km/h 5.0 km/h 99% 0.0 mm 46.00 W/m2
06:39 13.2 °C 13.1 °C 1020.0 hPa NNW 1.1 km/h 5.0 km/h 99% 0.0 mm 52.00 W/m2
06:44 13.6 °C 13.4 °C 1020.1 hPa North 2.6 km/h 6.1 km/h 99% 0.0 mm 56.00 W/m2
06:49 13.7 °C 13.6 °C 1020.2 hPa Calm   6.1 km/h 99% 0.0 mm 50.00 W/m2
06:54 13.7 °C 13.6 °C 1020.2 hPa North 1.1 km/h 5.0 km/h 99% 0.0 mm 49.00 W/m2
06:59 13.7 °C 13.6 °C 1019.9 hPa Calm   5.0 km/h 99% 0.0 mm 70.00 W/m2
07:04 13.9 °C 13.8 °C 1019.9 hPa North 1.1 km/h 5.0 km/h 99% 0.0 mm 63.00 W/m2
07:09 14.0 °C 13.8 °C 1020.0 hPa NNW 2.6 km/h 6.1 km/h 99% 0.0 mm 101.00 W/m2
07:14 14.5 °C 14.3 °C 1019.9 hPa NW 2.6 km/h 6.1 km/h 99% 0.0 mm 113.00 W/m2
07:19 15.0 °C 14.8 °C 1019.9 hPa NW 3.5 km/h 6.1 km/h 99% 0.0 mm 93.00 W/m2
07:24 15.4 °C 15.3 °C 1019.9 hPa NW 2.6 km/h 6.1 km/h 99% 0.0 mm 129.00 W/m2
07:29 15.6 °C 15.4 °C 1019.8 hPa NNW 3.5 km/h 7.2 km/h 99% 0.0 mm 131.00 W/m2
07:34 16.1 °C 15.8 °C 1019.7 hPa North 1.1 km/h 7.2 km/h 98% 0.0 mm 161.00 W/m2
07:39 17.1 °C 16.6 °C 1019.8 hPa North 3.5 km/h 6.1 km/h 97% 0.0 mm 175.00 W/m2
07:44 17.8 °C 17.3 °C 1019.9 hPa NNW 6.1 km/h 7.2 km/h 97% 0.0 mm 191.00 W/m2
07:49 18.1 °C 17.3 °C 1019.6 hPa Calm   7.2 km/h 95% 0.0 mm 211.00 W/m2
07:54 18.7 °C 16.9 °C 1019.6 hPa NNW 5.0 km/h 7.2 km/h 89% 0.0 mm 237.00 W/m2
07:59 19.2 °C 16.8 °C 1019.6 hPa NNW 1.1 km/h 7.2 km/h 86% 0.0 mm 267.00 W/m2
08:04 19.9 °C 17.3 °C 1019.6 hPa Calm   6.1 km/h 85% 0.0 mm 297.00 W/m2
08:09 20.9 °C 17.9 °C 1019.6 hPa Calm   5.0 km/h 83% 0.0 mm 317.00 W/m2
08:14 22.5 °C 17.9 °C 1019.6 hPa Calm   3.5 km/h 75% 0.0 mm 292.00 W/m2
08:19 22.0 °C 15.6 °C 1019.7 hPa NNE 5.0 km/h 13.4 km/h 67% 0.0 mm 197.00 W/m2
08:24 20.4 °C 15.4 °C 1019.6 hPa NNE 6.1 km/h 20.9 km/h 73% 0.0 mm 172.00 W/m2
08:29 20.1 °C 15.3 °C 1019.5 hPa NNE 5.0 km/h 20.9 km/h 74% 0.0 mm 154.00 W/m2
08:34 20.2 °C 16.1 °C 1019.5 hPa NNE 5.0 km/h 20.9 km/h 77% 0.0 mm 149.00 W/m2
08:39 19.9 °C 15.6 °C 1019.6 hPa North 11.1 km/h 18.3 km/h 76% 0.0 mm 148.00 W/m2
08:44 19.8 °C 15.7 °C 1019.5 hPa North 6.1 km/h 18.3 km/h 77% 0.0 mm 148.00 W/m2
08:49 20.0 °C 16.1 °C 1019.4 hPa North 2.6 km/h 15.8 km/h 78% 0.0 mm 161.00 W/m2
08:54 19.9 °C 15.8 °C 1019.5 hPa NNE 7.2 km/h 15.8 km/h 77% 0.0 mm 165.00 W/m2
08:59 19.8 °C 15.9 °C 1019.5 hPa NNE 7.2 km/h 15.8 km/h 78% 0.0 mm 184.00 W/m2
09:04 19.8 °C 15.9 °C 1019.5 hPa NNE 7.2 km/h 15.8 km/h 78% 0.0 mm 199.00 W/m2
09:09 19.9 °C 15.8 °C 1019.4 hPa North 8.7 km/h 15.8 km/h 77% 0.0 mm 217.00 W/m2
09:14 20.3 °C 15.9 °C 1019.2 hPa NNE 6.1 km/h 14.8 km/h 76% 0.0 mm 337.00 W/m2
09:19 20.9 °C 16.3 °C 1019.3 hPa NNE 9.7 km/h 14.8 km/h 75% 0.0 mm 273.00 W/m2
09:24 21.0 °C 15.8 °C 1019.2 hPa NNE 8.7 km/h 14.8 km/h 72% 0.0 mm 215.00 W/m2
09:29 21.0 °C 16.0 °C 1019.2 hPa North 8.7 km/h 13.4 km/h 73% 0.0 mm 507.00 W/m2
09:34 21.8 °C 16.3 °C 1019.1 hPa North 7.2 km/h 12.2 km/h 71% 0.0 mm 469.00 W/m2
09:39 22.2 °C 16.1 °C 1019.1 hPa NNE 6.1 km/h 13.4 km/h 68% 0.0 mm 504.00 W/m2
09:44 22.2 °C 16.1 °C 1018.8 hPa North 7.2 km/h 14.8 km/h 68% 0.0 mm 507.00 W/m2
09:49 22.2 °C 16.1 °C 1018.9 hPa North 8.7 km/h 14.8 km/h 68% 0.0 mm 522.00 W/m2
09:54 22.5 °C 16.1 °C 1018.9 hPa North 5.0 km/h 14.8 km/h 67% 0.0 mm 539.00 W/m2
09:59 22.9 °C 16.4 °C 1018.9 hPa North 5.0 km/h 15.8 km/h 67% 0.0 mm 554.00 W/m2
10:04 23.2 °C 16.8 °C 1018.9 hPa North 7.2 km/h 17.2 km/h 67% 0.0 mm 566.00 W/m2
10:09 23.1 °C 16.4 °C 1018.8 hPa North 11.1 km/h 18.3 km/h 66% 0.0 mm 582.00 W/m2
10:14 22.9 °C 16.2 °C 1018.8 hPa North 12.2 km/h 18.3 km/h 66% 0.0 mm 601.00 W/m2
10:19 23.2 °C 16.8 °C 1018.7 hPa NNE 7.2 km/h 18.3 km/h 67% 0.0 mm 625.00 W/m2
10:24 23.2 °C 16.8 °C 1018.6 hPa North 11.1 km/h 18.3 km/h 67% 0.0 mm 642.00 W/m2
10:29 23.3 °C 16.6 °C 1018.6 hPa North 6.1 km/h 18.3 km/h 66% 0.0 mm 658.00 W/m2
10:34 23.6 °C 16.9 °C 1018.6 hPa North 8.7 km/h 17.2 km/h 66% 0.0 mm 675.00 W/m2
10:39 23.8 °C 16.8 °C 1018.4 hPa NNE 6.1 km/h 18.3 km/h 65% 0.0 mm 686.00 W/m2
10:44 23.9 °C 16.9 °C 1018.3 hPa NNE 8.7 km/h 18.3 km/h 65% 0.0 mm 694.00 W/m2
10:49 24.1 °C 17.1 °C 1018.2 hPa North 7.2 km/h 13.4 km/h 65% 0.0 mm 713.00 W/m2
10:54 24.2 °C 17.0 °C 1018.2 hPa North 8.7 km/h 12.2 km/h 64% 0.0 mm 722.00 W/m2
10:59 24.3 °C 17.3 °C 1018.0 hPa North 7.2 km/h 13.4 km/h 65% 0.0 mm 735.00 W/m2
11:04 24.9 °C 17.7 °C 1017.9 hPa North 6.1 km/h 13.4 km/h 64% 0.0 mm 745.00 W/m2
11:09 24.5 °C 16.5 °C 1017.9 hPa North 6.1 km/h 14.8 km/h 61% 0.0 mm 754.00 W/m2
11:14 25.2 °C 17.4 °C 1017.8 hPa NNE 9.7 km/h 14.8 km/h 62% 0.0 mm 766.00 W/m2
11:19 25.2 °C 16.4 °C 1017.5 hPa NNE 5.0 km/h 12.2 km/h 58% 0.0 mm 775.00 W/m2
11:24 25.3 °C 15.6 °C 1017.5 hPa North 5.0 km/h 12.2 km/h 55% 0.0 mm 787.00 W/m2
11:29 25.3 °C 16.4 °C 1017.4 hPa North 3.5 km/h 12.2 km/h 58% 0.0 mm 796.00 W/m2
11:34 26.2 °C 17.1 °C 1017.5 hPa North 5.0 km/h 11.1 km/h 57% 0.0 mm 810.00 W/m2
11:39 25.4 °C 16.8 °C 1017.4 hPa North 3.5 km/h 14.8 km/h 59% 0.0 mm 808.00 W/m2
11:44 25.9 °C 17.8 °C 1017.3 hPa North 8.7 km/h 14.8 km/h 61% 0.0 mm 821.00 W/m2
11:49 25.7 °C 16.8 °C 1017.3 hPa North 8.7 km/h 14.8 km/h 58% 0.0 mm 820.00 W/m2
11:54 25.6 °C 17.6 °C 1017.3 hPa NNE 11.1 km/h 14.8 km/h 61% 0.0 mm 831.00 W/m2
11:59 25.4 °C 17.1 °C 1017.1 hPa NNE 7.2 km/h 15.8 km/h 60% 0.0 mm 833.00 W/m2
12:04 25.7 °C 17.1 °C 1016.8 hPa NNE 2.6 km/h 15.8 km/h 59% 0.0 mm 887.00 W/m2
12:09 26.2 °C 17.6 °C 1016.8 hPa NE 6.1 km/h 13.4 km/h 59% 0.0 mm 880.00 W/m2
12:14 26.4 °C 17.5 °C 1016.7 hPa NNE 7.2 km/h 13.4 km/h 58% 0.0 mm 899.00 W/m2
12:19 26.5 °C 17.3 °C 1016.6 hPa NNW 2.6 km/h 13.4 km/h 57% 0.0 mm 920.00 W/m2
12:24 27.3 °C 17.2 °C 1016.6 hPa North 5.0 km/h 13.4 km/h 54% 0.0 mm 277.00 W/m2
12:29 26.6 °C 17.4 °C 1016.6 hPa East 12.2 km/h 15.8 km/h 57% 0.0 mm 305.00 W/m2
12:34 25.3 °C 17.8 °C 1016.5 hPa East 12.2 km/h 15.8 km/h 63% 0.0 mm 914.00 W/m2
12:39 25.2 °C 17.9 °C 1016.5 hPa East 7.2 km/h 18.3 km/h 64% 0.0 mm 219.00 W/m2
12:44 24.4 °C 17.4 °C 1016.4 hPa ESE 8.7 km/h 18.3 km/h 65% 0.0 mm 199.00 W/m2
12:49 24.2 °C 18.2 °C 1016.3 hPa ESE 9.7 km/h 17.2 km/h 69% 0.0 mm 912.00 W/m2
12:54 24.8 °C 18.3 °C 1016.3 hPa ESE 11.1 km/h 20.9 km/h 67% 0.0 mm 355.00 W/m2
12:59 24.8 °C 17.8 °C 1016.3 hPa ESE 9.7 km/h 20.9 km/h 65% 0.0 mm 921.00 W/m2
13:04 24.9 °C 18.1 °C 1016.1 hPa SE 9.7 km/h 17.2 km/h 66% 0.0 mm 872.00 W/m2
13:09 25.0 °C 17.7 °C 1016.2 hPa SE 7.2 km/h 17.2 km/h 64% 0.0 mm 338.00 W/m2
13:14 25.0 °C 18.0 °C 1016.0 hPa SSE 7.2 km/h 15.8 km/h 65% 0.0 mm 922.00 W/m2
13:19 25.2 °C 18.4 °C 1015.8 hPa SW 9.7 km/h 19.5 km/h 66% 0.0 mm 325.00 W/m2
13:24 25.2 °C 18.4 °C 1015.6 hPa SSW 11.1 km/h 19.5 km/h 66% 0.0 mm 218.00 W/m2
13:29 24.9 °C 18.1 °C 1015.6 hPa SE 9.7 km/h 19.5 km/h 66% 0.0 mm 822.00 W/m2
13:34 25.1 °C 18.1 °C 1015.3 hPa SE 7.2 km/h 18.3 km/h 65% 0.0 mm 844.00 W/m2
13:39 25.2 °C 18.2 °C 1015.5 hPa SE 13.4 km/h 19.5 km/h 65% 0.0 mm 851.00 W/m2
13:44 25.4 °C 18.8 °C 1015.3 hPa SE 7.2 km/h 19.5 km/h 67% 0.0 mm 848.00 W/m2
13:49 25.5 °C 17.9 °C 1015.2 hPa SE 11.1 km/h 18.3 km/h 63% 0.0 mm 858.00 W/m2
13:54 25.6 °C 18.3 °C 1015.3 hPa ESE 7.2 km/h 18.3 km/h 64% 0.0 mm 166.00 W/m2
13:59 25.7 °C 18.4 °C 1015.0 hPa ESE 6.1 km/h 17.2 km/h 64% 0.0 mm 823.00 W/m2
14:04 25.8 °C 18.7 °C 1014.9 hPa SE 5.0 km/h 17.2 km/h 65% 0.0 mm 625.00 W/m2
14:09 26.1 °C 18.6 °C 1014.7 hPa SE 7.2 km/h 17.2 km/h 63% 0.0 mm 808.00 W/m2
14:14 26.4 °C 18.6 °C 1014.7 hPa ESE 9.7 km/h 17.2 km/h 62% 0.0 mm 820.00 W/m2
14:19 26.0 °C 18.2 °C 1014.7 hPa SE 7.2 km/h 15.8 km/h 62% 0.0 mm 851.00 W/m2
14:24 26.2 °C 18.4 °C 1014.5 hPa SSE 5.0 km/h 15.8 km/h 62% 0.0 mm 801.00 W/m2
14:29 26.5 °C 18.9 °C 1014.3 hPa SE 8.7 km/h 17.2 km/h 63% 0.0 mm 811.00 W/m2
14:34 26.4 °C 18.6 °C 1014.2 hPa SE 8.7 km/h 17.2 km/h 62% 0.0 mm 815.00 W/m2
14:39 26.5 °C 18.4 °C 1014.2 hPa SE 7.2 km/h 15.8 km/h 61% 0.0 mm 798.00 W/m2
14:44 26.5 °C 18.1 °C 1014.0 hPa SE 12.2 km/h 19.5 km/h 60% 0.0 mm 167.00 W/m2
14:49 25.7 °C 18.2 °C 1014.2 hPa SE 5.0 km/h 19.5 km/h 63% 0.0 mm 176.00 W/m2
14:54 25.8 °C 18.5 °C 1014.0 hPa SSE 6.1 km/h 15.8 km/h 64% 0.0 mm 905.00 W/m2
14:59 26.5 °C 18.4 °C 1013.8 hPa SE 9.7 km/h 14.8 km/h 61% 0.0 mm 721.00 W/m2
15:04 26.9 °C 18.8 °C 1013.8 hPa SE 7.2 km/h 14.8 km/h 61% 0.0 mm 774.00 W/m2
15:09 27.3 °C 18.6 °C 1013.6 hPa SE 11.1 km/h 13.4 km/h 59% 0.0 mm 755.00 W/m2
15:14 27.7 °C 18.2 °C 1013.5 hPa SE 9.7 km/h 14.8 km/h 56% 0.0 mm 721.00 W/m2
15:19 27.3 °C 17.8 °C 1013.2 hPa SE 8.7 km/h 14.8 km/h 56% 0.0 mm 721.00 W/m2
15:24 28.1 °C 18.2 °C 1013.2 hPa NW 3.5 km/h 13.4 km/h 55% 0.0 mm 669.00 W/m2
15:29 28.5 °C 18.3 °C 1013.2 hPa ENE 5.0 km/h 15.8 km/h 54% 0.0 mm 686.00 W/m2
15:34 29.2 °C 18.4 °C 1013.1 hPa ESE 6.1 km/h 15.8 km/h 52% 0.0 mm 728.00 W/m2
15:39 29.2 °C 19.3 °C 1012.8 hPa SE 8.7 km/h 14.8 km/h 55% 0.0 mm 742.00 W/m2
15:44 29.1 °C 17.3 °C 1012.7 hPa SE 7.2 km/h 19.5 km/h 49% 0.0 mm 722.00 W/m2
15:49 29.9 °C 18.4 °C 1012.7 hPa ESE 5.0 km/h 19.5 km/h 50% 0.0 mm 707.00 W/m2
15:54 29.9 °C 17.7 °C 1012.6 hPa East 2.6 km/h 11.1 km/h 48% 0.0 mm 207.00 W/m2
15:59 29.2 °C 16.1 °C 1012.4 hPa NE 12.2 km/h 21.9 km/h 45% 0.0 mm 668.00 W/m2
16:04 29.5 °C 16.3 °C 1012.3 hPa NNE 8.7 km/h 24.5 km/h 45% 0.0 mm 242.00 W/m2
16:09 30.0 °C 15.3 °C 1012.3 hPa North 6.1 km/h 24.5 km/h 41% 0.0 mm 250.00 W/m2
16:14 29.4 °C 16.9 °C 1012.1 hPa North 2.6 km/h 12.2 km/h 47% 0.0 mm 328.00 W/m2
16:19 29.1 °C 17.7 °C 1011.9 hPa NW 13.4 km/h 14.8 km/h 50% 0.0 mm 190.00 W/m2
16:24 27.7 °C 17.9 °C 1011.9 hPa NW 3.5 km/h 14.8 km/h 55% 0.0 mm 483.00 W/m2
16:29 27.9 °C 18.3 °C 1011.9 hPa West 14.8 km/h 17.2 km/h 56% 0.0 mm 592.00 W/m2
16:34 28.5 °C 18.6 °C 1011.7 hPa NW 5.0 km/h 17.2 km/h 55% 0.0 mm 569.00 W/m2
16:39 29.4 °C 18.6 °C 1011.6 hPa ESE 5.0 km/h 17.2 km/h 52% 0.0 mm 599.00 W/m2
16:44 30.2 °C 17.3 °C 1011.6 hPa North 12.2 km/h 18.3 km/h 46% 0.0 mm 476.00 W/m2
16:49 29.1 °C 16.7 °C 1011.6 hPa NNW 7.2 km/h 18.3 km/h 47% 0.0 mm 333.00 W/m2
16:54 28.7 °C 16.6 °C 1011.6 hPa NW 8.7 km/h 18.3 km/h 48% 0.0 mm 439.00 W/m2
16:59 28.8 °C 16.4 °C 1011.5 hPa NNW 7.2 km/h 19.5 km/h 47% 0.0 mm 349.00 W/m2
17:04 29.1 °C 15.6 °C 1011.3 hPa North 9.7 km/h 21.9 km/h 44% 0.0 mm 468.00 W/m2
17:09 29.3 °C 15.4 °C 1011.2 hPa North 9.7 km/h 21.9 km/h 43% 0.0 mm 531.00 W/m2
17:14 29.4 °C 15.9 °C 1011.2 hPa NNW 14.8 km/h 21.9 km/h 44% 0.0 mm 522.00 W/m2
17:19 29.3 °C 14.7 °C 1011.1 hPa NNW 18.3 km/h 28.0 km/h 41% 0.0 mm 493.00 W/m2
17:24 29.2 °C 15.7 °C 1011.0 hPa North 13.4 km/h 28.0 km/h 44% 0.0 mm 349.00 W/m2
17:29 29.2 °C 15.0 °C 1011.0 hPa North 14.8 km/h 28.0 km/h 42% 0.0 mm 252.00 W/m2
17:34 28.6 °C 15.6 °C 1010.9 hPa North 9.7 km/h 25.6 km/h 45% 0.0 mm 291.00 W/m2
17:39 28.5 °C 15.4 °C 1011.0 hPa North 13.4 km/h 25.6 km/h 45% 0.0 mm 350.00 W/m2
17:44 28.6 °C 15.6 °C 1010.9 hPa North 15.8 km/h 24.5 km/h 45% 0.0 mm 317.00 W/m2
17:49 28.7 °C 15.6 °C 1010.9 hPa NNW 12.2 km/h 19.5 km/h 45% 0.0 mm 317.00 W/m2
17:54 28.6 °C 15.2 °C 1010.9 hPa NNW 7.2 km/h 19.5 km/h 44% 0.0 mm 310.00 W/m2
17:59 28.8 °C 15.7 °C 1010.9 hPa North 9.7 km/h 19.5 km/h 45% 0.0 mm 285.00 W/m2
18:04 28.7 °C 15.6 °C 1010.7 hPa NNW 12.2 km/h 18.3 km/h 45% 0.0 mm 204.00 W/m2
18:09 28.2 °C 15.2 °C 1010.7 hPa NW 6.1 km/h 18.3 km/h 45% 0.0 mm 276.00 W/m2
18:14 27.9 °C 14.6 °C 1010.7 hPa NNW 11.1 km/h 19.5 km/h 44% 0.0 mm 190.00 W/m2
18:19 27.4 °C 14.4 °C 1010.6 hPa NNW 9.7 km/h 19.5 km/h 45% 0.0 mm 183.00 W/m2
18:24 27.2 °C 14.6 °C 1010.7 hPa North 9.7 km/h 30.6 km/h 46% 0.0 mm 222.00 W/m2
18:29 27.2 °C 14.9 °C 1010.5 hPa North 12.2 km/h 30.6 km/h 47% 0.0 mm 207.00 W/m2
18:34 27.1 °C 14.5 °C 1010.6 hPa North 9.7 km/h 23.3 km/h 46% 0.0 mm 212.00 W/m2
18:39 27.1 °C 14.8 °C 1010.5 hPa North 12.2 km/h 23.3 km/h 47% 0.0 mm 203.00 W/m2
18:44 27.2 °C 14.9 °C 1010.6 hPa North 11.1 km/h 23.3 km/h 47% 0.0 mm 212.00 W/m2
18:49 27.0 °C 14.7 °C 1010.6 hPa North 12.2 km/h 21.9 km/h 47% 0.0 mm 190.00 W/m2
18:54 26.8 °C 14.9 °C 1010.5 hPa North 17.2 km/h 21.9 km/h 48% 0.0 mm 142.00 W/m2
18:59 26.4 °C 15.4 °C 1010.6 hPa North 6.1 km/h 21.9 km/h 51% 0.0 mm 131.00 W/m2
19:04 26.1 °C 14.9 °C 1010.5 hPa North 9.7 km/h 28.0 km/h 50% 0.0 mm 133.00 W/m2
19:09 26.1 °C 15.5 °C 1010.5 hPa North 9.7 km/h 28.0 km/h 52% 0.0 mm 136.00 W/m2
19:14 25.9 °C 15.3 °C 1010.5 hPa North 9.7 km/h 25.6 km/h 52% 0.0 mm 94.00 W/m2
19:19 25.7 °C 15.4 °C 1010.4 hPa North 7.2 km/h 25.6 km/h 53% 0.0 mm 83.00 W/m2
19:24 25.5 °C 15.2 °C 1010.5 hPa NNW 12.2 km/h 25.6 km/h 53% 0.0 mm 76.00 W/m2
19:29 25.2 °C 15.3 °C 1010.2 hPa North 14.8 km/h 25.6 km/h 54% 0.0 mm 68.00 W/m2
19:34 25.1 °C 15.2 °C 1010.3 hPa North 8.7 km/h 19.5 km/h 54% 0.0 mm 63.00 W/m2
19:39 24.9 °C 15.6 °C 1010.4 hPa North 15.8 km/h 27.0 km/h 56% 0.0 mm 57.00 W/m2
19:44 24.7 °C 15.3 °C 1010.4 hPa North 17.2 km/h 27.0 km/h 56% 0.0 mm 46.00 W/m2
19:49 24.6 °C 15.3 °C 1010.4 hPa NNE 11.1 km/h 27.0 km/h 56% 0.0 mm 37.00 W/m2
19:54 24.5 °C 15.4 °C 1010.4 hPa NNE 14.8 km/h 24.5 km/h 57% 0.0 mm 29.00 W/m2
19:59 24.2 °C 15.9 °C 1010.4 hPa NNE 6.1 km/h 19.5 km/h 60% 0.0 mm 22.00 W/m2
20:04 24.0 °C 16.6 °C 1010.5 hPa NNE 9.7 km/h 19.5 km/h 63% 0.0 mm 18.00 W/m2
20:09 23.7 °C 16.7 °C 1010.4 hPa NNE 12.2 km/h 18.3 km/h 65% 0.0 mm 11.00 W/m2
20:14 23.6 °C 16.7 °C 1010.2 hPa NNE 7.2 km/h 20.9 km/h 65% 0.0 mm 8.00 W/m2
20:19 23.3 °C 16.4 °C 1010.3 hPa North 13.4 km/h 27.0 km/h 65% 0.0 mm 5.00 W/m2
20:24 23.3 °C 16.4 °C 1010.2 hPa North 8.7 km/h 27.0 km/h 65% 0.0 mm 3.00 W/m2
20:29 23.1 °C 16.2 °C 1010.4 hPa North 11.1 km/h 27.0 km/h 65% 0.0 mm 1.00 W/m2
20:34 22.9 °C 15.7 °C 1010.4 hPa North 9.7 km/h 23.3 km/h 64% 0.0 mm 0.00 W/m2
20:35 22.9 °C 16.0 °C 1010.5 hPa North 9.7 km/h 23.3 km/h 65% 0.0 mm 0.00 W/m2
20:54 22.8 °C 15.7 °C 1010.5 hPa North 14.8 km/h 21.9 km/h 64% 0.0 mm 0.00 W/m2
20:59 22.7 °C 15.6 °C 1010.5 hPa NNE 9.7 km/h 21.9 km/h 64% 0.0 mm 0.00 W/m2
21:04 22.7 °C 15.8 °C 1010.6 hPa NNE 7.2 km/h 20.9 km/h 65% 0.0 mm 0.00 W/m2
21:09 22.4 °C 15.5 °C 1010.5 hPa NNE 9.7 km/h 18.3 km/h 65% 0.0 mm 0.00 W/m2
21:14 22.4 °C 15.5 °C 1010.7 hPa NNE 7.2 km/h 18.3 km/h 65% 0.0 mm 0.00 W/m2
21:19 22.4 °C 15.5 °C 1010.6 hPa NNE 11.1 km/h 18.3 km/h 65% 0.0 mm 0.00 W/m2
21:24 22.4 °C 15.5 °C 1010.7 hPa NNE 8.7 km/h 23.3 km/h 65% 0.0 mm 0.00 W/m2
21:29 22.4 °C 15.3 °C 1010.7 hPa North 8.7 km/h 23.3 km/h 64% 0.0 mm 0.00 W/m2
21:34 22.4 °C 15.0 °C 1010.9 hPa NNW 11.1 km/h 19.5 km/h 63% 0.0 mm 0.00 W/m2
21:39 22.4 °C 15.0 °C 1010.7 hPa North 12.2 km/h 19.5 km/h 63% 0.0 mm 0.00 W/m2
21:44 22.4 °C 15.0 °C 1010.6 hPa North 8.7 km/h 19.5 km/h 63% 0.0 mm 0.00 W/m2
21:49 22.4 °C 15.0 °C 1010.6 hPa North 9.7 km/h 19.5 km/h 63% 0.0 mm 0.00 W/m2
21:54 22.4 °C 15.3 °C 1010.5 hPa North 14.8 km/h 19.5 km/h 64% 0.0 mm 0.00 W/m2
21:59 22.4 °C 15.0 °C 1010.4 hPa North 9.7 km/h 19.5 km/h 63% 0.0 mm 0.00 W/m2
22:04 22.4 °C 15.3 °C 1010.6 hPa North 8.7 km/h 18.3 km/h 64% 0.0 mm 0.00 W/m2
22:09 22.3 °C 15.2 °C 1010.4 hPa NNW 12.2 km/h 18.3 km/h 64% 0.0 mm 0.00 W/m2
22:14 22.3 °C 15.2 °C 1010.5 hPa North 11.1 km/h 20.9 km/h 64% 0.0 mm 0.00 W/m2
22:19 22.2 °C 15.1 °C 1010.2 hPa NNE 6.1 km/h 20.9 km/h 64% 0.0 mm 0.00 W/m2
22:24 22.2 °C 15.1 °C 1010.4 hPa North 8.7 km/h 14.8 km/h 64% 0.0 mm 0.00 W/m2
22:29 22.2 °C 15.1 °C 1010.3 hPa North 6.1 km/h 14.8 km/h 64% 0.0 mm 0.00 W/m2
22:34 22.1 °C 15.2 °C 1010.4 hPa NNW 7.2 km/h 13.4 km/h 65% 0.0 mm 0.00 W/m2
22:39 22.0 °C 15.4 °C 1010.3 hPa NNW 7.2 km/h 13.4 km/h 66% 0.0 mm 0.00 W/m2
22:44 22.0 °C 15.4 °C 1010.1 hPa NNW 9.7 km/h 13.4 km/h 66% 0.0 mm 0.00 W/m2
22:49 22.0 °C 15.4 °C 1010.1 hPa North 12.2 km/h 19.5 km/h 66% 0.0 mm 0.00 W/m2
22:54 22.0 °C 15.4 °C 1009.9 hPa North 13.4 km/h 19.5 km/h 66% 0.0 mm 0.00 W/m2
22:59 22.0 °C 15.4 °C 1010.0 hPa North 9.7 km/h 19.5 km/h 66% 0.0 mm 0.00 W/m2
23:04 22.0 °C 15.4 °C 1010.1 hPa North 12.2 km/h 15.8 km/h 66% 0.0 mm 0.00 W/m2
23:09 22.0 °C 15.4 °C 1010.0 hPa NNW 21.9 km/h 28.0 km/h 66% 0.0 mm 0.00 W/m2
23:14 22.3 °C 15.2 °C 1009.9 hPa NNW 15.8 km/h 31.7 km/h 64% 0.0 mm 0.00 W/m2
23:19 22.3 °C 14.9 °C 1009.9 hPa NNW 12.2 km/h 31.7 km/h 63% 0.0 mm 0.00 W/m2
23:24 22.3 °C 14.7 °C 1009.9 hPa NNW 15.8 km/h 31.7 km/h 62% 0.0 mm 0.00 W/m2
23:29 22.3 °C 14.4 °C 1009.8 hPa NNW 18.3 km/h 31.7 km/h 61% 0.0 mm 0.00 W/m2
23:34 22.2 °C 14.1 °C 1009.5 hPa NNW 9.7 km/h 29.4 km/h 60% 0.0 mm 0.00 W/m2
23:39 22.1 °C 14.2 °C 1009.3 hPa North 12.2 km/h 27.0 km/h 61% 0.0 mm 0.00 W/m2
23:44 22.0 °C 14.4 °C 1009.1 hPa NNE 9.7 km/h 20.9 km/h 62% 0.0 mm 0.00 W/m2
23:49 22.0 °C 14.7 °C 1009.3 hPa NNE 11.1 km/h 20.9 km/h 63% 0.0 mm 0.00 W/m2
23:54 21.9 °C 15.1 °C 1009.2 hPa North 9.7 km/h 19.5 km/h 65% 0.0 mm 0.00 W/m2
23:59 21.9 °C 14.8 °C 1009.2 hPa North 7.2 km/h 19.5 km/h 64% 0.0 mm 0.00 W/m2
Northern Hawkes Bay. New Zealand Historic Data
Compliments of Weather Underground - 2 mb